createdAt,value
2023-02-12T00:01:09.942Z,55.84
2023-02-12T00:03:37.776Z,58.09
2023-02-12T00:06:05.631Z,58.55
2023-02-12T00:08:32.680Z,58.33
2023-02-12T00:10:59.531Z,57.88
2023-02-12T00:13:26.448Z,57.44
2023-02-12T00:15:53.636Z,59.08
2023-02-12T00:18:20.873Z,60.37
2023-02-12T00:20:47.796Z,61.58
2023-02-12T00:23:14.792Z,60.11
2023-02-12T00:25:42.799Z,59.43
2023-02-12T00:28:09.797Z,60.11
2023-02-12T00:30:36.952Z,60.76
2023-02-12T00:33:04.318Z,60.51
2023-02-12T00:35:31.219Z,60.02
2023-02-12T00:37:58.390Z,59.84
2023-02-12T00:40:25.332Z,60.03
2023-02-12T00:42:52.229Z,59.31
2023-02-12T00:45:19.209Z,60.37
2023-02-12T00:47:46.096Z,60.61
2023-02-12T00:50:15.627Z,61.00
2023-02-12T00:52:42.526Z,61.08
2023-02-12T00:55:09.570Z,60.55
2023-02-12T00:57:36.543Z,59.60
2023-02-12T01:00:04.821Z,61.80
2023-02-12T01:02:31.721Z,62.79
2023-02-12T01:04:58.843Z,63.37
2023-02-12T01:07:25.798Z,63.39
2023-02-12T01:09:52.708Z,63.73
2023-02-12T01:12:19.576Z,63.06
2023-02-12T01:14:46.778Z,63.53
2023-02-12T01:17:13.764Z,64.06
2023-02-12T01:19:44.558Z,64.95
2023-02-12T01:22:11.468Z,64.94
2023-02-12T01:24:38.393Z,64.55
2023-02-12T01:27:05.337Z,64.29
2023-02-12T01:29:32.289Z,64.89
2023-02-12T01:32:01.287Z,65.14
2023-02-12T01:34:28.258Z,64.86
2023-02-12T01:36:55.137Z,64.49
2023-02-12T01:39:22.418Z,63.23
2023-02-12T01:41:49.304Z,62.48
2023-02-12T01:44:22.304Z,62.85
2023-02-12T01:47:00.782Z,63.19
2023-02-12T01:49:38.103Z,62.79
2023-02-12T01:52:10.106Z,62.26
2023-02-12T01:54:38.272Z,61.95
2023-02-12T01:57:08.283Z,60.84
2023-02-12T01:59:36.836Z,61.70
2023-02-12T02:02:05.441Z,63.29
2023-02-12T02:04:41.981Z,63.96
2023-02-12T02:07:12.256Z,64.24
2023-02-12T02:09:40.416Z,63.40
2023-02-12T02:12:26.857Z,62.50
2023-02-12T02:14:59.210Z,61.75
2023-02-12T02:17:29.912Z,62.94
2023-02-12T02:20:15.511Z,63.80
2023-02-12T02:23:20.792Z,63.15
2023-02-12T02:26:15.175Z,62.12
2023-02-12T02:29:16.049Z,61.74
2023-02-12T02:31:47.330Z,63.08
2023-02-12T02:34:51.264Z,63.99
2023-02-12T02:37:24.219Z,64.24
2023-02-12T02:39:58.026Z,64.04
2023-02-12T02:42:27.922Z,63.81
2023-02-12T02:45:04.805Z,63.92
2023-02-12T02:47:56.129Z,64.11
2023-02-12T02:50:27.497Z,64.60
2023-02-12T02:53:02.959Z,65.08
2023-02-12T02:55:39.075Z,65.28
2023-02-12T02:58:20.167Z,64.65
2023-02-12T03:01:29.697Z,64.81
2023-02-12T03:04:03.909Z,64.35
2023-02-12T03:06:47.203Z,64.96
2023-02-12T03:09:26.963Z,64.95
2023-02-12T03:12:00.576Z,64.03
2023-02-12T03:14:32.485Z,62.96
2023-02-12T03:16:59.360Z,63.00
2023-02-12T03:19:32.260Z,63.69
2023-02-12T03:22:27.184Z,63.80
2023-02-12T03:24:56.094Z,62.44
2023-02-12T03:27:31.763Z,62.22
2023-02-12T03:29:59.146Z,62.22
2023-02-12T03:32:53.434Z,62.13
2023-02-12T03:35:45.377Z,62.85
2023-02-12T03:38:26.923Z,63.29
2023-02-12T03:40:56.320Z,62.13
2023-02-12T03:43:29.450Z,62.66
2023-02-12T03:46:04.113Z,62.62
2023-02-12T03:48:41.853Z,62.78
2023-02-12T03:51:23.122Z,63.73
2023-02-12T03:53:50.306Z,63.61
2023-02-12T03:56:28.881Z,63.68
2023-02-12T03:58:56.119Z,62.73
2023-02-12T04:01:23.726Z,61.86
2023-02-12T04:03:50.795Z,62.90
2023-02-12T04:06:24.001Z,63.39
2023-02-12T04:08:50.909Z,64.11
2023-02-12T04:11:31.002Z,63.92
2023-02-12T04:14:25.098Z,64.98
2023-02-12T04:17:06.556Z,66.25
2023-02-12T04:19:39.526Z,66.52
2023-02-12T04:22:22.247Z,67.04
2023-02-12T04:25:07.329Z,67.78
2023-02-12T04:27:40.109Z,67.22
2023-02-12T04:30:33.461Z,66.61
2023-02-12T04:33:03.844Z,65.83
2023-02-12T04:35:47.609Z,66.27
2023-02-12T04:38:23.476Z,66.16
2023-02-12T04:40:51.769Z,67.34
2023-02-12T04:43:29.544Z,67.86
2023-02-12T04:45:56.838Z,68.56
2023-02-12T04:48:23.991Z,69.10
2023-02-12T04:50:50.966Z,69.39
2023-02-12T04:53:17.951Z,70.52
2023-02-12T04:55:45.372Z,70.67
2023-02-12T04:58:12.223Z,70.74
2023-02-12T05:00:39.468Z,70.66
2023-02-12T05:03:06.386Z,71.09
2023-02-12T05:05:33.821Z,71.68
2023-02-12T05:08:01.060Z,72.00
2023-02-12T05:10:28.476Z,72.66
2023-02-12T05:12:56.011Z,72.31
2023-02-12T05:15:23.097Z,72.41
2023-02-12T05:17:50.028Z,72.39
2023-02-12T05:20:17.137Z,72.68
2023-02-12T05:22:44.146Z,73.92
2023-02-12T05:25:11.854Z,73.84
2023-02-12T05:27:38.789Z,74.23
2023-02-12T05:30:06.459Z,73.71
2023-02-12T05:32:33.434Z,73.53
2023-02-12T05:35:00.324Z,73.67
2023-02-12T05:37:27.306Z,73.70
2023-02-12T05:39:54.242Z,73.31
2023-02-12T05:42:21.182Z,73.44
2023-02-12T05:44:48.286Z,74.22
2023-02-12T05:47:15.171Z,73.73
2023-02-12T05:49:42.877Z,73.57
2023-02-12T05:52:09.877Z,74.18
2023-02-12T05:54:36.816Z,74.67
2023-02-12T05:57:03.838Z,74.47
2023-02-12T05:59:30.761Z,74.82
2023-02-12T06:01:57.610Z,74.98
2023-02-12T06:04:27.592Z,74.71
2023-02-12T06:06:55.991Z,74.76
2023-02-12T06:09:23.779Z,74.38
2023-02-12T06:11:50.721Z,74.31
2023-02-12T06:14:19.850Z,74.31
2023-02-12T06:16:49.645Z,74.24
2023-02-12T06:19:17.652Z,73.84
2023-02-12T06:21:44.985Z,73.73
2023-02-12T06:24:16.729Z,73.27
2023-02-12T06:26:43.796Z,73.37
2023-02-12T06:29:11.095Z,73.42
2023-02-12T06:31:38.472Z,73.46
2023-02-12T06:34:08.344Z,73.97
2023-02-12T06:36:38.438Z,73.63
2023-02-12T06:39:06.505Z,73.37
2023-02-12T06:41:34.016Z,73.38
2023-02-12T06:44:00.933Z,73.08
2023-02-12T06:46:27.920Z,73.09
2023-02-12T06:48:56.338Z,73.29
2023-02-12T06:51:24.021Z,73.56
2023-02-12T06:53:52.619Z,73.33
2023-02-12T06:56:20.742Z,73.29
2023-02-12T06:58:53.273Z,72.84
2023-02-12T07:01:24.668Z,72.98
2023-02-12T07:04:00.318Z,72.61
2023-02-12T07:06:28.742Z,73.58
2023-02-12T07:08:57.103Z,73.02
2023-02-12T07:11:26.310Z,73.18
2023-02-12T07:13:53.525Z,72.79
2023-02-12T07:16:20.822Z,72.35
2023-02-12T07:18:48.292Z,72.20
2023-02-12T07:21:16.733Z,71.61
2023-02-12T07:23:50.852Z,71.77
2023-02-12T07:26:20.150Z,72.30
2023-02-12T07:28:47.381Z,71.81
2023-02-12T07:31:20.214Z,72.59
2023-02-12T07:33:47.744Z,72.14
2023-02-12T07:36:19.188Z,71.23
2023-02-12T07:38:46.806Z,71.14
2023-02-12T07:41:16.936Z,70.16
2023-02-12T07:43:45.701Z,69.34
2023-02-12T07:46:14.614Z,68.93
2023-02-12T07:48:41.623Z,70.39
2023-02-12T07:51:11.094Z,69.27
2023-02-12T07:53:38.663Z,69.57
2023-02-12T07:56:31.048Z,70.39
2023-02-12T07:58:59.914Z,69.38
2023-02-12T08:01:35.565Z,70.05
2023-02-12T08:04:06.511Z,69.73
2023-02-12T08:06:36.209Z,69.81
2023-02-12T08:09:05.635Z,69.68
2023-02-12T08:11:33.670Z,68.65
2023-02-12T08:14:01.167Z,69.12
2023-02-12T08:16:29.388Z,69.64
2023-02-12T08:19:02.332Z,68.86
2023-02-12T08:21:34.715Z,68.83
2023-02-12T08:24:01.767Z,69.38
2023-02-12T08:26:34.546Z,68.46
2023-02-12T08:29:07.904Z,68.10
2023-02-12T08:31:40.677Z,68.03
2023-02-12T08:34:08.082Z,66.99
2023-02-12T08:36:40.272Z,67.28
2023-02-12T08:39:08.381Z,66.70
2023-02-12T08:41:35.618Z,65.89
2023-02-12T08:44:04.429Z,65.31
2023-02-12T08:46:36.538Z,65.14
2023-02-12T08:49:11.465Z,65.53
2023-02-12T08:51:41.392Z,65.06
2023-02-12T08:54:11.510Z,64.67
2023-02-12T08:56:38.856Z,64.18
2023-02-12T08:59:07.551Z,62.84
2023-02-12T09:01:43.446Z,62.67
2023-02-12T09:04:18.371Z,63.00
2023-02-12T09:06:46.935Z,62.72
2023-02-12T09:09:14.844Z,62.71
2023-02-12T09:11:42.051Z,62.53
2023-02-12T09:14:12.586Z,62.82
2023-02-12T09:16:42.259Z,63.24
2023-02-12T09:19:12.164Z,64.17
2023-02-12T09:21:39.149Z,64.41
2023-02-12T09:24:06.314Z,64.25
2023-02-12T09:26:33.461Z,64.17
2023-02-12T09:29:02.397Z,64.00
2023-02-12T09:31:31.092Z,64.18
2023-02-12T09:34:00.923Z,65.27
2023-02-12T09:36:28.063Z,64.60
2023-02-12T09:38:55.194Z,64.74
2023-02-12T09:41:46.295Z,65.26
2023-02-12T09:44:37.412Z,64.79
2023-02-12T10:18:12.352Z,67.63
2023-02-12T10:20:48.288Z,68.50
2023-02-12T10:23:45.597Z,68.43
2023-02-12T10:26:19.160Z,68.25
2023-02-12T10:28:46.704Z,67.49
2023-02-12T10:31:30.528Z,66.74
2023-02-12T10:33:58.961Z,66.36
2023-02-12T10:36:28.984Z,66.72
2023-02-12T10:39:01.958Z,68.49
2023-02-12T10:41:31.482Z,68.10
2023-02-12T10:43:58.537Z,66.94
2023-02-12T10:46:25.472Z,67.63
2023-02-12T10:48:54.392Z,68.11
2023-02-12T10:51:49.552Z,68.39
2023-02-12T10:54:34.144Z,69.20
2023-02-12T10:57:12.635Z,69.47
2023-02-12T10:59:41.267Z,69.30
2023-02-12T11:02:23.874Z,67.68
2023-02-12T11:04:52.013Z,67.97
2023-02-12T11:07:19.063Z,67.47
2023-02-12T11:09:48.069Z,66.83
2023-02-12T11:12:31.813Z,65.79
2023-02-12T11:15:01.834Z,64.65
2023-02-12T11:17:39.007Z,65.01
2023-02-12T11:20:10.218Z,64.25
2023-02-12T11:22:37.388Z,63.87
2023-02-12T11:25:16.128Z,63.56
2023-02-12T11:27:44.137Z,63.03
2023-02-12T11:30:13.437Z,63.95
2023-02-12T11:32:40.682Z,64.59
2023-02-12T11:35:27.265Z,63.92
2023-02-12T11:37:57.072Z,63.90
2023-02-12T11:40:27.724Z,63.60
2023-02-12T11:42:59.103Z,63.35
2023-02-12T11:45:32.456Z,63.58
2023-02-12T11:47:59.933Z,63.85
2023-02-12T11:50:33.138Z,63.55
2023-02-12T11:53:09.459Z,63.60
2023-02-12T11:55:40.167Z,63.53
2023-02-12T11:58:13.154Z,62.90
2023-02-12T12:00:45.668Z,64.28
2023-02-12T12:03:24.568Z,64.77
2023-02-12T12:05:55.133Z,65.24
2023-02-12T12:08:29.742Z,65.38
2023-02-12T12:11:18.376Z,66.28
2023-02-12T12:14:01.728Z,65.92
2023-02-12T12:17:00.797Z,67.22
2023-02-12T12:19:54.151Z,67.65
2023-02-12T12:22:42.604Z,67.71
2023-02-12T12:25:28.030Z,68.20
2023-02-12T12:28:08.256Z,68.35
2023-02-12T12:31:12.442Z,67.91
2023-02-12T12:33:48.609Z,68.67
2023-02-12T12:36:33.631Z,68.71
2023-02-12T12:39:32.891Z,68.63
2023-02-12T12:42:28.549Z,68.80
2023-02-12T12:45:18.039Z,68.42
2023-02-12T12:48:18.015Z,68.50
2023-02-12T12:50:54.863Z,68.90
2023-02-12T12:53:40.618Z,69.38
2023-02-12T12:56:22.027Z,69.36
2023-02-12T12:59:10.291Z,69.55
2023-02-12T13:02:05.242Z,68.43
2023-02-12T13:04:50.761Z,69.25
2023-02-12T13:07:34.625Z,69.59
2023-02-12T13:10:22.415Z,69.78
2023-02-12T13:12:54.592Z,70.52
2023-02-12T13:15:45.707Z,71.12
2023-02-12T13:18:22.002Z,70.74
2023-02-12T13:21:14.081Z,70.71
2023-02-12T13:24:03.606Z,70.24
2023-02-12T13:26:45.591Z,71.02
2023-02-12T13:29:12.699Z,70.56
2023-02-12T13:31:48.306Z,71.55
2023-02-12T13:34:18.564Z,72.21
2023-02-12T13:36:46.167Z,72.27
2023-02-12T13:39:13.058Z,71.29
2023-02-12T13:41:44.607Z,72.86
2023-02-12T13:44:31.769Z,72.96
2023-02-12T13:47:12.273Z,74.37
2023-02-12T13:49:54.362Z,75.18
2023-02-12T13:52:56.253Z,75.25
2023-02-12T13:55:53.508Z,76.39
2023-02-12T13:58:32.637Z,77.71
2023-02-12T14:01:01.730Z,78.25
2023-02-12T14:03:31.132Z,77.60
2023-02-12T14:06:32.434Z,77.87
2023-02-12T14:09:10.753Z,79.11
2023-02-12T14:11:50.773Z,79.56
2023-02-12T14:14:31.471Z,79.72
2023-02-12T14:17:18.748Z,80.62
2023-02-12T14:19:51.553Z,80.60
2023-02-12T14:22:27.148Z,80.61
2023-02-12T14:24:56.330Z,80.98
2023-02-12T14:27:35.007Z,80.70
2023-02-12T14:30:07.838Z,80.87
2023-02-12T14:32:53.878Z,81.02
2023-02-12T14:35:26.334Z,80.88
2023-02-12T14:37:55.858Z,81.28
2023-02-12T14:40:34.638Z,80.76
2023-02-12T14:43:04.163Z,81.07
2023-02-12T14:45:40.149Z,81.28
2023-02-12T14:48:41.471Z,80.98
2023-02-12T14:51:20.248Z,81.69
2023-02-12T14:53:48.675Z,81.97
2023-02-12T14:56:21.775Z,81.43
2023-02-12T14:58:51.178Z,82.05
2023-02-12T15:01:18.916Z,82.08
2023-02-12T15:03:54.237Z,81.47
2023-02-12T15:06:35.653Z,82.02
2023-02-12T15:09:10.409Z,81.42
2023-02-12T15:11:43.927Z,81.69
2023-02-12T15:14:24.675Z,81.65
2023-02-12T15:17:06.015Z,80.36
2023-02-12T15:19:54.818Z,80.70
2023-02-12T15:22:31.697Z,80.17
2023-02-12T15:25:24.614Z,81.13
2023-02-12T15:28:13.962Z,80.61
2023-02-12T15:30:43.194Z,80.53
2023-02-12T15:33:28.238Z,81.19
2023-02-12T15:35:56.560Z,81.22
2023-02-12T15:38:36.944Z,81.57
2023-02-12T15:41:05.527Z,81.37
2023-02-12T15:43:37.135Z,81.57
2023-02-12T15:46:07.881Z,80.69
2023-02-12T15:48:37.013Z,81.83
2023-02-12T15:51:15.684Z,82.37
2023-02-12T15:53:43.460Z,82.06
2023-02-12T15:56:17.573Z,82.11
2023-02-12T15:58:52.554Z,82.93
2023-02-12T16:01:22.844Z,82.49
2023-02-12T16:04:02.058Z,83.48
2023-02-12T16:06:34.277Z,83.16
2023-02-12T16:09:08.362Z,83.84
2023-02-12T16:11:36.060Z,83.27
2023-02-12T16:14:24.858Z,83.36
2023-02-12T16:16:54.899Z,84.42
2023-02-12T16:19:37.239Z,84.14
2023-02-12T16:22:16.297Z,84.63
2023-02-12T16:24:49.356Z,84.31
2023-02-12T16:27:16.200Z,83.62
2023-02-12T16:29:49.744Z,83.53
2023-02-12T16:32:34.926Z,84.35
2023-02-12T16:35:27.705Z,84.04
2023-02-12T16:38:02.193Z,84.10
2023-02-12T16:40:32.600Z,84.79
2023-02-12T16:43:07.936Z,85.30
2023-02-12T16:45:40.636Z,84.63
2023-02-12T16:48:15.382Z,85.06
2023-02-12T16:50:48.933Z,85.12
2023-02-12T16:53:35.948Z,84.39
2023-02-12T16:56:03.672Z,84.32
2023-02-12T16:58:30.843Z,85.40
2023-02-12T17:00:59.404Z,85.44
2023-02-12T17:03:26.553Z,86.34
2023-02-12T17:05:53.561Z,86.26
2023-02-12T17:08:23.419Z,86.05
2023-02-12T17:10:50.435Z,86.24
2023-02-12T17:13:18.555Z,86.19
2023-02-12T17:15:57.500Z,86.03
2023-02-12T17:18:25.704Z,85.15
2023-02-12T17:20:58.167Z,85.26
2023-02-12T17:23:25.605Z,85.39
2023-02-12T17:25:52.832Z,85.04
2023-02-12T17:28:21.150Z,83.60
2023-02-12T17:30:48.233Z,83.04
2023-02-12T17:33:16.926Z,82.95
2023-02-12T17:35:44.009Z,82.74
2023-02-12T17:38:11.931Z,83.60
2023-02-12T17:40:39.892Z,83.59
2023-02-12T17:43:08.275Z,83.46
2023-02-12T17:45:35.774Z,83.38
2023-02-12T17:48:02.737Z,82.79
2023-02-12T17:50:29.752Z,83.77
2023-02-12T17:52:57.262Z,83.91
2023-02-12T17:55:24.202Z,83.59
2023-02-12T17:57:56.315Z,83.50
2023-02-12T18:00:24.211Z,83.37
2023-02-12T18:02:51.912Z,83.23
2023-02-12T18:05:19.387Z,83.75
2023-02-12T18:07:47.005Z,83.01
2023-02-12T18:10:14.012Z,82.17
2023-02-12T18:12:41.400Z,82.81
2023-02-12T18:15:09.634Z,81.92
2023-02-12T18:17:37.034Z,81.89
2023-02-12T18:20:04.848Z,81.34
2023-02-12T18:22:34.870Z,81.56
2023-02-12T18:25:01.901Z,81.45
2023-02-12T18:27:29.708Z,81.22
2023-02-12T18:29:57.391Z,81.20
2023-02-12T18:32:24.630Z,81.28
2023-02-12T18:34:51.691Z,80.42
2023-02-12T18:37:18.817Z,80.50
2023-02-12T18:39:45.834Z,80.99
2023-02-12T18:42:12.839Z,80.55
2023-02-12T18:44:40.006Z,80.27
2023-02-12T18:47:07.128Z,80.83
2023-02-12T18:49:34.112Z,81.14
2023-02-12T18:52:02.222Z,80.91
2023-02-12T18:54:29.278Z,81.66
2023-02-12T18:56:56.513Z,81.63
2023-02-12T18:59:25.205Z,81.04
2023-02-12T19:01:54.167Z,81.43
2023-02-12T19:04:23.987Z,80.83
2023-02-12T19:06:53.838Z,81.24
2023-02-12T19:09:24.332Z,80.98
2023-02-12T19:11:54.156Z,81.02
2023-02-12T19:14:23.332Z,81.05
2023-02-12T19:16:51.072Z,81.03
2023-02-12T19:19:22.083Z,80.39
2023-02-12T19:21:49.480Z,80.18
2023-02-12T19:24:16.992Z,79.47
2023-02-12T19:26:47.456Z,80.22
2023-02-12T19:29:14.387Z,80.39
2023-02-12T19:31:45.405Z,79.95
2023-02-12T19:34:23.300Z,80.52
2023-02-12T19:36:50.441Z,79.75
2023-02-12T19:39:20.659Z,79.79
2023-02-12T19:41:48.295Z,79.50
2023-02-12T19:44:21.008Z,79.69
2023-02-12T19:46:49.543Z,79.42
2023-02-12T19:49:22.801Z,78.72
2023-02-12T19:51:50.433Z,78.88
2023-02-12T19:54:18.646Z,78.81
2023-02-12T19:56:46.704Z,78.95
2023-02-12T19:59:17.228Z,78.84
2023-02-12T20:01:45.140Z,78.72
2023-02-12T20:04:13.264Z,78.60
2023-02-12T20:06:41.574Z,77.97
2023-02-12T20:09:10.548Z,78.08
2023-02-12T20:11:38.755Z,77.60
2023-02-12T20:14:08.136Z,77.74
2023-02-12T20:16:38.315Z,77.78
2023-02-12T20:19:11.145Z,77.35
2023-02-12T20:21:38.541Z,75.94
2023-02-12T20:24:06.044Z,76.15
2023-02-12T20:26:34.044Z,75.37
2023-02-12T20:29:04.855Z,75.01
2023-02-12T20:31:35.970Z,74.48
2023-02-12T20:34:06.428Z,74.81
2023-02-12T20:36:37.893Z,74.43
2023-02-12T20:39:06.856Z,74.38
2023-02-12T20:41:38.124Z,73.72
2023-02-12T20:44:07.025Z,74.23
2023-02-12T20:46:38.008Z,73.99
2023-02-12T20:49:05.994Z,73.69
2023-02-12T20:51:33.098Z,72.43
2023-02-12T20:54:02.014Z,72.50
2023-02-12T20:56:31.791Z,72.57
2023-02-12T20:58:59.380Z,73.42
2023-02-12T21:01:27.550Z,73.09
2023-02-12T21:03:55.705Z,73.14
2023-02-12T21:06:24.448Z,72.83
2023-02-12T21:08:51.860Z,72.97
2023-02-12T21:11:21.973Z,72.68
2023-02-12T21:13:59.260Z,72.55
2023-02-12T21:16:32.835Z,72.95
2023-02-12T21:19:00.484Z,72.84
2023-02-12T21:21:30.483Z,72.79
2023-02-12T21:23:59.468Z,72.52
2023-02-12T21:26:28.944Z,72.69
2023-02-12T21:28:57.830Z,73.04
2023-02-12T21:31:39.728Z,73.22
2023-02-12T21:34:09.244Z,73.78
2023-02-12T21:36:38.938Z,74.14
2023-02-12T21:39:08.521Z,73.98
2023-02-12T21:41:37.906Z,74.63
2023-02-12T21:44:10.232Z,74.09
2023-02-12T21:46:37.972Z,75.35
2023-02-12T21:49:05.442Z,75.65
2023-02-12T21:51:43.180Z,75.61
2023-02-12T21:54:17.900Z,75.92
2023-02-12T21:56:46.887Z,75.42
2023-02-12T21:59:14.707Z,75.54
2023-02-12T22:01:44.576Z,75.94
2023-02-12T22:04:11.827Z,75.88
2023-02-12T22:06:42.571Z,76.67
2023-02-12T22:09:11.757Z,76.86
2023-02-12T22:11:40.593Z,76.63
2023-02-12T22:14:08.752Z,76.15
2023-02-12T22:16:37.377Z,76.31
2023-02-12T22:19:05.234Z,76.92
2023-02-12T22:21:35.440Z,76.94
2023-02-12T22:24:04.981Z,76.76
2023-02-12T22:26:33.130Z,77.38
2023-02-12T22:29:03.773Z,77.64
2023-02-12T22:31:33.760Z,77.43
2023-02-12T22:34:04.759Z,77.77
2023-02-12T22:36:34.315Z,77.47
2023-02-12T22:39:01.718Z,77.58
2023-02-12T22:41:28.987Z,77.77
2023-02-12T22:43:59.076Z,77.24
2023-02-12T22:46:27.107Z,77.54
2023-02-12T22:48:54.660Z,77.42
2023-02-12T22:51:27.903Z,77.35
2023-02-12T22:53:55.621Z,77.08
2023-02-12T22:56:23.544Z,77.34
2023-02-12T22:58:56.231Z,77.21
2023-02-12T23:01:23.801Z,77.27
2023-02-12T23:03:51.617Z,76.40
2023-02-12T23:06:21.551Z,76.38
2023-02-12T23:08:53.507Z,76.64
2023-02-12T23:11:21.146Z,76.84
2023-02-12T23:13:48.108Z,76.73
2023-02-12T23:16:15.139Z,76.33
2023-02-12T23:18:42.408Z,76.04
2023-02-12T23:21:09.611Z,76.32
2023-02-12T23:23:36.588Z,75.74
2023-02-12T23:26:03.618Z,76.23
2023-02-12T23:28:30.650Z,76.41
2023-02-12T23:30:58.455Z,75.91
2023-02-12T23:33:25.694Z,75.75
2023-02-12T23:35:52.711Z,75.91
2023-02-12T23:38:19.605Z,76.25
2023-02-12T23:40:47.728Z,76.68
2023-02-12T23:43:14.727Z,76.55
2023-02-12T23:45:44.595Z,77.63
2023-02-12T23:48:12.075Z,77.66
2023-02-12T23:50:39.976Z,77.90
2023-02-12T23:53:06.983Z,78.09
2023-02-12T23:55:36.668Z,78.52
2023-02-12T23:58:04.709Z,78.27
